Terminal Aerodrome Forecast
Issued by NWS Quad Cities IA IL

Home | Current Version | Previous Version | Text Only | Print | Product List | Glossary On
Versions: 1 2 3 4 5 6 7 8 9 10 11 12 13 14 15 16 17 18 19 20 21 22 23
000
FTUS43 KDVN 051141
TAFMLI
TAF
KMLI 051141Z 0512/0612 10006KT 3SM BR OVC006
      TEMPO 0512/0514 2SM BR OVC004
     FM051500 08007KT P6SM BKN015
     FM051800 09010KT P6SM VCTS BKN030CB
     FM052300 10007KT P6SM BKN060=

USA.gov is the U.S. government's official web portal to all federal, state and local government web resources and services.